Bei Facebook empfehlenBei Twitter postenGoogle plusPinterest

Das Wetter im Erzgebirge am 01.06.2017

Wetter und Klima am 01.06.2017 Holzhau im Erzgebirge (630m ü.NN)
Letzte gemessene Temperatur und Uhrzeit der Messung23:45:00 Uhr5.60 °C
Temperatur (Maximum / Höchstwert) und Uhrzeit der Messung16:30:00 Uhr22.00 °C
Temperatur (Minimum / Tiefstwert) und Uhrzeit der Messung23:45:005.60 °C
Errechneter Absolutwert der Temperaturschwankungen zwischen Tmin und Tmax des Tages16.40 K
Errechnete Tagesmitteltemperatur14.02292 °C
Gesamt - Niederschlag des Tages (in flüssiger Form)0.00 Liter / m²
Luftdruck (Maximum / Höchstwert) und Zeitpunkt der Messung12:00:00 Uhr1019.10 hPa
Luftdruck (Minimum / Tiefstwert) und Zeitpunkt der Messung19:45:00 Uhr1017.60 hPa
Errechneter Absolutwert der Luftdruckschwankungen des Tages1.50 hPa
Höchste gemessene Windgeschwindigkeit und Uhrzeit der Messung13:30:00 Uhr46.80 km/h
Errechnete Windhäufigkeit in Relation zu den Messwerten des Tages14.58333 %
Niedrigste Windkühle (Windchill) und Zeitpunkt der Messung23:45:00 Uhr5.60 °C
Taupunkt (Maximum / Höchstwert) und Uhrzeit der Messung14:15:00 Uhr10.80 °C
Taupunkt (Minimum / Tiefstwert) und Uhrzeit der Messung22:30:000.30 °C
Anzahl der automatisch eingelesenen Messwerte 96

Detaillierte Wetter- und Klima- Messwerte für den 01.06.2017 in Holzhau im Erzgebirge (630m ü.NN)
ZeitTemperaturLuftdruckRel. LuftfeuchteWindWindrichtungWindchillTaupunktNiederschlag l/m²
23:45:005.60 °C1017.80 hPa69.00 %0.40 °C 
23:30:005.90 °C1017.80 hPa69.00 %0.70 °C 
23:15:006.30 °C1017.90 hPa67.00 %0.60 °C 
23:00:006.50 °C1017.90 hPa66.00 %0.60 °C 
22:45:006.90 °C1017.90 hPa64.00 %0.60 °C 
22:30:007.10 °C1018.00 hPa62.00 %0.30 °C 
22:15:007.50 °C1018.00 hPa60.00 %0.30 °C 
22:00:008.20 °C1017.90 hPa58.00 %0.40 °C 
21:45:008.90 °C1017.90 hPa57.00 %0.90 °C 
21:30:009.80 °C1017.80 hPa54.00 %0.90 °C 
21:15:0010.80 °C1017.80 hPa51.00 %1.10 °C 
21:00:0012.30 °C1017.90 hPa46.00 %1.00 °C 
20:45:0013.60 °C1017.90 hPa44.00 %1.60 °C 
20:30:0014.90 °C1017.70 hPa41.00 %1.80 °C 
20:15:0015.90 °C1017.70 hPa38.00 %1.60 °C 
20:00:0016.90 °C1017.70 hPa36.00 %1.80 °C 
19:45:0017.60 °C1017.60 hPa38.00 %3.10 °C 
19:30:0018.50 °C1017.70 hPa36.00 %3.20 °C 
19:15:0019.00 °C1017.60 hPa35.00 %3.20 °C 
19:00:0019.30 °C1017.70 hPa33.00 %2.60 °C 
18:45:0019.70 °C1017.70 hPa32.00 %2.60 °C 
18:30:0019.90 °C1017.70 hPa32.00 %2.70 °C 
18:15:0020.30 °C1017.90 hPa32.00 %5.04 km/hW20.30 °C3.10 °C 
18:00:0020.70 °C1018.00 hPa34.00 %11.52 km/hWSW20.70 °C4.30 °C 
17:45:0020.90 °C1017.90 hPa34.00 %4.50 °C 
17:30:0020.90 °C1018.10 hPa34.00 %4.50 °C 
17:15:0021.20 °C1018.30 hPa33.00 %16.92 km/hN21.20 °C4.30 °C 
17:00:0021.60 °C1018.50 hPa34.00 %2.52 km/hW21.60 °C5.10 °C 
16:45:0021.60 °C1018.50 hPa34.00 %5.10 °C 
16:30:0022.00 °C1018.50 hPa38.00 %7.00 °C 
16:15:0021.60 °C1018.60 hPa37.00 %6.30 °C 
16:00:0021.60 °C1018.70 hPa39.00 %7.10 °C 
15:45:0021.50 °C1018.60 hPa40.00 %7.30 °C 
15:30:0021.50 °C1018.70 hPa42.00 %27.36 km/hWNW22.50 °C8.10 °C 
15:15:0021.30 °C1018.80 hPa43.00 %8.20 °C 
15:00:0021.10 °C1018.70 hPa47.00 %9.40 °C 
14:45:0021.00 °C1018.90 hPa46.00 %8.90 °C 
14:30:0020.90 °C1019.00 hPa49.00 %9.80 °C 
14:15:0020.70 °C1018.90 hPa53.00 %15.48 km/hNW20.70 °C10.80 °C 
14:00:0020.80 °C1018.80 hPa51.00 %10.30 °C 
13:45:0020.40 °C1019.00 hPa54.00 %10.80 °C 
13:30:0019.90 °C1018.90 hPa54.00 %46.80 km/hNNO20.20 °C10.30 °C 
13:15:0019.60 °C1019.00 hPa54.00 %33.84 km/hSW20.20 °C10.00 °C 
13:00:0019.10 °C1018.90 hPa58.00 %16.92 km/hW19.10 °C10.60 °C 
12:45:0018.90 °C1018.80 hPa58.00 %33.84 km/hNW19.30 °C10.50 °C 
12:30:0019.10 °C1018.80 hPa58.00 %14.40 km/hWNW19.10 °C10.60 °C 
12:15:0019.10 °C1018.80 hPa58.00 %10.60 °C 
12:00:0019.00 °C1019.10 hPa59.00 %10.80 °C 
11:45:0018.70 °C1018.70 hPa60.00 %10.80 °C 
11:30:0018.40 °C1018.70 hPa58.00 %11.52 km/hWSW18.40 °C10.00 °C 
11:15:0018.30 °C1018.80 hPa60.00 %24.48 km/hWNW18.90 °C10.40 °C 
11:00:0017.80 °C1018.90 hPa62.00 %10.40 °C 
10:45:0016.90 °C1018.90 hPa63.00 %9.80 °C 
10:30:0016.50 °C1018.80 hPa62.00 %9.20 °C 
10:15:0016.10 °C1018.80 hPa64.00 %9.30 °C 
10:00:0016.10 °C1018.80 hPa62.00 %8.80 °C 
09:45:0016.30 °C1018.70 hPa62.00 %9.00 °C 
09:30:0016.00 °C1018.60 hPa64.00 %9.20 °C 
09:15:0015.50 °C1018.80 hPa64.00 %8.70 °C 
09:00:0015.60 °C1018.80 hPa64.00 %8.80 °C 
08:45:0015.40 °C1018.70 hPa65.00 %3.96 km/hWNW15.40 °C8.90 °C 
08:30:0014.80 °C1018.70 hPa67.00 %8.70 °C 
08:15:0014.90 °C1018.60 hPa66.00 %8.60 °C 
08:00:0015.40 °C1018.40 hPa65.00 %8.90 °C 
07:45:0015.30 °C1018.50 hPa69.00 %9.70 °C 
07:30:0014.40 °C1018.60 hPa75.00 %10.00 °C 
07:15:0011.90 °C1018.60 hPa88.00 %10.00 °C 
07:00:008.80 °C1018.60 hPa91.00 %7.40 °C 
06:45:008.40 °C1018.60 hPa91.00 %7.00 °C 
06:30:008.00 °C1018.60 hPa91.00 %6.60 °C 
06:15:007.80 °C1018.60 hPa91.00 %6.40 °C 
06:00:007.40 °C1018.60 hPa91.00 %6.00 °C 
05:45:006.90 °C1018.60 hPa91.00 %5.50 °C 
05:30:006.60 °C1018.50 hPa90.00 %5.10 °C 
05:15:006.60 °C1018.50 hPa90.00 %5.10 °C 
05:00:006.70 °C1018.50 hPa90.00 %5.20 °C 
04:45:007.10 °C1018.30 hPa89.00 %5.40 °C 
04:30:007.40 °C1018.30 hPa90.00 %5.90 °C 
04:15:007.60 °C1018.20 hPa89.00 %5.90 °C 
04:00:007.60 °C1018.40 hPa90.00 %6.10 °C 
03:45:007.60 °C1018.30 hPa89.00 %5.90 °C 
03:30:007.80 °C1018.20 hPa89.00 %6.10 °C 
03:15:007.80 °C1018.20 hPa89.00 %6.10 °C 
03:00:007.80 °C1018.20 hPa89.00 %6.10 °C 
02:45:007.60 °C1018.20 hPa88.00 %5.70 °C 
02:30:007.60 °C1018.30 hPa88.00 %5.70 °C 
02:15:007.80 °C1018.30 hPa87.00 %5.80 °C 
02:00:008.00 °C1018.10 hPa86.00 %5.80 °C 
01:45:008.60 °C1017.90 hPa86.00 %6.40 °C 
01:30:009.00 °C1018.10 hPa85.00 %6.60 °C 
01:15:009.30 °C1018.00 hPa85.00 %6.90 °C 
01:00:009.50 °C1017.90 hPa85.00 %7.10 °C 
00:45:009.80 °C1017.90 hPa85.00 %7.40 °C 
00:30:009.90 °C1018.00 hPa85.00 %7.50 °C 
00:15:009.90 °C1018.00 hPa86.00 %7.70 °C 
00:00:009.60 °C1017.90 hPa87.00 %7.50 °C 

Permanenter Link zu dieser Seite: Wetter im Erzgebirge am 01.06.2017
Performance-Info: Die Erstellung der Seite / Statistik(en) / Tabelle(n) erforderte 5 Datenbankserver-Abfrage(n) und dauerte 97 Millisekunden. (Dieser Messwert ist von der Gesamt-Auslastung des Servers abhängig.)
Erzgebirge - Wetter | Erzgebirge - Wetter (Mobilgeräte) | Komplette Klimadatenbank